sensor_id;sensor_type;location;lat;lon;timestamp;P1;durP1;ratioP1;P2;durP2;ratioP2
22332;SDS011;11334;36.986;-121.936;2023-12-20T00:00:15;10.95;;;2.53;;
22332;SDS011;11334;36.986;-121.936;2023-12-20T00:02:41;10.18;;;2.35;;
22332;SDS011;11334;36.986;-121.936;2023-12-20T00:05:12;11.63;;;2.83;;
22332;SDS011;11334;36.986;-121.936;2023-12-20T00:07:39;12.85;;;2.63;;
22332;SDS011;11334;36.986;-121.936;2023-12-20T00:10:06;9.98;;;2.38;;
22332;SDS011;11334;36.986;-121.936;2023-12-20T00:12:32;12.13;;;2.05;;
22332;SDS011;11334;36.986;-121.936;2023-12-20T00:14:58;7.63;;;2.20;;
22332;SDS011;11334;36.986;-121.936;2023-12-20T00:17:25;10.35;;;2.70;;
22332;SDS011;11334;36.986;-121.936;2023-12-20T00:19:51;10.75;;;2.70;;
22332;SDS011;11334;36.986;-121.936;2023-12-20T00:22:17;10.77;;;2.20;;
22332;SDS011;11334;36.986;-121.936;2023-12-20T00:24:43;10.27;;;2.47;;
22332;SDS011;11334;36.986;-121.936;2023-12-20T00:27:09;10.57;;;2.10;;
22332;SDS011;11334;36.986;-121.936;2023-12-20T00:29:36;9.65;;;2.40;;
22332;SDS011;11334;36.986;-121.936;2023-12-20T00:32:02;8.27;;;1.95;;
22332;SDS011;11334;36.986;-121.936;2023-12-20T00:34:28;10.90;;;3.00;;
22332;SDS011;11334;36.986;-121.936;2023-12-20T00:36:54;8.85;;;2.50;;
22332;SDS011;11334;36.986;-121.936;2023-12-20T00:39:20;12.05;;;2.38;;
22332;SDS011;11334;36.986;-121.936;2023-12-20T00:41:47;8.02;;;2.20;;
22332;SDS011;11334;36.986;-121.936;2023-12-20T00:44:13;11.93;;;3.00;;
22332;SDS011;11334;36.986;-121.936;2023-12-20T00:46:39;12.45;;;2.40;;
22332;SDS011;11334;36.986;-121.936;2023-12-20T00:49:06;11.75;;;3.35;;
22332;SDS011;11334;36.986;-121.936;2023-12-20T00:51:32;11.57;;;2.67;;
22332;SDS011;11334;36.986;-121.936;2023-12-20T00:53:58;9.02;;;2.67;;
22332;SDS011;11334;36.986;-121.936;2023-12-20T00:56:24;6.75;;;2.55;;
22332;SDS011;11334;36.986;-121.936;2023-12-20T00:58:51;13.73;;;2.90;;
22332;SDS011;11334;36.986;-121.936;2023-12-20T01:01:17;14.77;;;2.38;;
22332;SDS011;11334;36.986;-121.936;2023-12-20T01:03:43;11.30;;;2.80;;
22332;SDS011;11334;36.986;-121.936;2023-12-20T01:06:09;10.88;;;2.47;;
22332;SDS011;11334;36.986;-121.936;2023-12-20T01:08:36;8.15;;;2.17;;
22332;SDS011;11334;36.986;-121.936;2023-12-20T01:11:06;9.13;;;1.92;;
22332;SDS011;11334;36.986;-121.936;2023-12-20T01:13:32;11.40;;;2.63;;
22332;SDS011;11334;36.986;-121.936;2023-12-20T01:15:58;9.70;;;2.00;;
22332;SDS011;11334;36.986;-121.936;2023-12-20T01:18:25;7.65;;;1.70;;
22332;SDS011;11334;36.986;-121.936;2023-12-20T01:20:51;7.15;;;1.65;;
22332;SDS011;11334;36.986;-121.936;2023-12-20T01:23:17;9.95;;;2.15;;
22332;SDS011;11334;36.986;-121.936;2023-12-20T01:25:43;6.43;;;1.98;;
22332;SDS011;11334;36.986;-121.936;2023-12-20T01:28:10;9.50;;;2.17;;
22332;SDS011;11334;36.986;-121.936;2023-12-20T01:30:38;7.25;;;2.30;;
22332;SDS011;11334;36.986;-121.936;2023-12-20T01:33:05;7.47;;;2.67;;
22332;SDS011;11334;36.986;-121.936;2023-12-20T01:35:31;8.95;;;2.22;;
22332;SDS011;11334;36.986;-121.936;2023-12-20T01:37:57;6.85;;;2.40;;
22332;SDS011;11334;36.986;-121.936;2023-12-20T01:40:23;11.57;;;2.58;;
22332;SDS011;11334;36.986;-121.936;2023-12-20T01:42:59;8.02;;;2.50;;
22332;SDS011;11334;36.986;-121.936;2023-12-20T01:45:26;6.72;;;2.78;;
22332;SDS011;11334;36.986;-121.936;2023-12-20T01:47:53;12.15;;;2.25;;
22332;SDS011;11334;36.986;-121.936;2023-12-20T01:50:21;8.88;;;2.55;;
22332;SDS011;11334;36.986;-121.936;2023-12-20T01:52:47;11.52;;;2.63;;
22332;SDS011;11334;36.986;-121.936;2023-12-20T01:55:18;12.50;;;3.05;;
22332;SDS011;11334;36.986;-121.936;2023-12-20T01:57:45;9.15;;;2.28;;
22332;SDS011;11334;36.986;-121.936;2023-12-20T02:00:12;10.25;;;2.58;;
22332;SDS011;11334;36.986;-121.936;2023-12-20T02:02:40;14.55;;;3.33;;
22332;SDS011;11334;36.986;-121.936;2023-12-20T02:05:06;13.90;;;2.88;;
22332;SDS011;11334;36.986;-121.936;2023-12-20T02:07:33;12.40;;;3.08;;
22332;SDS011;11334;36.986;-121.936;2023-12-20T02:10:00;10.65;;;3.15;;
22332;SDS011;11334;36.986;-121.936;2023-12-20T02:12:27;15.10;;;4.10;;
22332;SDS011;11334;36.986;-121.936;2023-12-20T02:14:53;12.32;;;3.38;;
22332;SDS011;11334;36.986;-121.936;2023-12-20T02:17:20;8.82;;;2.53;;
22332;SDS011;11334;36.986;-121.936;2023-12-20T02:19:46;11.57;;;3.03;;
22332;SDS011;11334;36.986;-121.936;2023-12-20T02:22:12;13.23;;;3.08;;
22332;SDS011;11334;36.986;-121.936;2023-12-20T02:24:38;10.20;;;2.65;;
22332;SDS011;11334;36.986;-121.936;2023-12-20T02:27:05;15.32;;;3.13;;
22332;SDS011;11334;36.986;-121.936;2023-12-20T02:29:35;10.50;;;2.63;;
22332;SDS011;11334;36.986;-121.936;2023-12-20T02:32:02;11.57;;;3.80;;
22332;SDS011;11334;36.986;-121.936;2023-12-20T02:34:28;12.48;;;2.88;;
22332;SDS011;11334;36.986;-121.936;2023-12-20T02:36:54;15.48;;;3.95;;
22332;SDS011;11334;36.986;-121.936;2023-12-20T02:39:21;12.90;;;3.65;;
22332;SDS011;11334;36.986;-121.936;2023-12-20T02:41:48;16.63;;;3.78;;
22332;SDS011;11334;36.986;-121.936;2023-12-20T02:44:14;13.82;;;3.22;;
22332;SDS011;11334;36.986;-121.936;2023-12-20T02:46:40;9.88;;;2.83;;
22332;SDS011;11334;36.986;-121.936;2023-12-20T02:49:07;11.55;;;3.47;;
22332;SDS011;11334;36.986;-121.936;2023-12-20T02:51:33;9.65;;;3.40;;
22332;SDS011;11334;36.986;-121.936;2023-12-20T02:53:59;11.30;;;2.85;;
22332;SDS011;11334;36.986;-121.936;2023-12-20T02:56:25;16.95;;;3.45;;
22332;SDS011;11334;36.986;-121.936;2023-12-20T02:58:51;15.30;;;3.60;;
22332;SDS011;11334;36.986;-121.936;2023-12-20T03:01:18;12.48;;;2.85;;
22332;SDS011;11334;36.986;-121.936;2023-12-20T03:03:44;14.07;;;4.07;;
22332;SDS011;11334;36.986;-121.936;2023-12-20T03:06:15;12.77;;;3.83;;
22332;SDS011;11334;36.986;-121.936;2023-12-20T03:08:44;10.60;;;3.50;;
22332;SDS011;11334;36.986;-121.936;2023-12-20T03:11:11;13.38;;;3.28;;
22332;SDS011;11334;36.986;-121.936;2023-12-20T03:13:37;12.73;;;2.95;;
22332;SDS011;11334;36.986;-121.936;2023-12-20T03:16:13;12.10;;;2.65;;
22332;SDS011;11334;36.986;-121.936;2023-12-20T03:18:41;10.10;;;4.63;;
22332;SDS011;11334;36.986;-121.936;2023-12-20T03:21:07;11.55;;;4.60;;
22332;SDS011;11334;36.986;-121.936;2023-12-20T03:23:33;15.50;;;4.50;;
22332;SDS011;11334;36.986;-121.936;2023-12-20T03:26:00;16.40;;;5.57;;
22332;SDS011;11334;36.986;-121.936;2023-12-20T03:28:27;15.57;;;6.07;;
22332;SDS011;11334;36.986;-121.936;2023-12-20T03:30:53;17.48;;;5.07;;
22332;SDS011;11334;36.986;-121.936;2023-12-20T03:33:19;19.25;;;5.10;;
22332;SDS011;11334;36.986;-121.936;2023-12-20T03:35:45;16.60;;;3.92;;
22332;SDS011;11334;36.986;-121.936;2023-12-20T03:38:12;18.10;;;3.78;;
22332;SDS011;11334;36.986;-121.936;2023-12-20T03:40:38;12.88;;;4.15;;
22332;SDS011;11334;36.986;-121.936;2023-12-20T03:43:04;15.57;;;5.32;;
22332;SDS011;11334;36.986;-121.936;2023-12-20T03:45:30;39.70;;;19.55;;
22332;SDS011;11334;36.986;-121.936;2023-12-20T03:47:57;21.90;;;10.77;;
22332;SDS011;11334;36.986;-121.936;2023-12-20T03:50:23;22.70;;;6.82;;
22332;SDS011;11334;36.986;-121.936;2023-12-20T03:52:49;25.27;;;5.45;;
22332;SDS011;11334;36.986;-121.936;2023-12-20T03:55:15;15.75;;;5.43;;
22332;SDS011;11334;36.986;-121.936;2023-12-20T03:57:42;22.00;;;10.95;;
22332;SDS011;11334;36.986;-121.936;2023-12-20T04:00:08;20.73;;;5.90;;
22332;SDS011;11334;36.986;-121.936;2023-12-20T04:02:38;14.05;;;4.97;;
22332;SDS011;11334;36.986;-121.936;2023-12-20T04:05:05;18.85;;;4.35;;
22332;SDS011;11334;36.986;-121.936;2023-12-20T04:07:33;14.65;;;5.38;;
22332;SDS011;11334;36.986;-121.936;2023-12-20T04:09:59;18.65;;;5.38;;
22332;SDS011;11334;36.986;-121.936;2023-12-20T04:12:26;16.55;;;4.90;;
22332;SDS011;11334;36.986;-121.936;2023-12-20T04:14:56;24.70;;;4.70;;
22332;SDS011;11334;36.986;-121.936;2023-12-20T04:17:22;17.60;;;4.22;;
22332;SDS011;11334;36.986;-121.936;2023-12-20T04:19:49;19.60;;;4.03;;
22332;SDS011;11334;36.986;-121.936;2023-12-20T04:22:19;16.80;;;4.00;;
22332;SDS011;11334;36.986;-121.936;2023-12-20T04:24:45;11.98;;;3.75;;
22332;SDS011;11334;36.986;-121.936;2023-12-20T04:27:11;15.80;;;3.90;;
22332;SDS011;11334;36.986;-121.936;2023-12-20T04:29:38;15.30;;;3.40;;
22332;SDS011;11334;36.986;-121.936;2023-12-20T04:32:04;19.52;;;3.83;;
22332;SDS011;11334;36.986;-121.936;2023-12-20T04:34:30;24.10;;;4.32;;
22332;SDS011;11334;36.986;-121.936;2023-12-20T04:36:57;16.17;;;3.67;;
22332;SDS011;11334;36.986;-121.936;2023-12-20T04:39:23;20.83;;;4.13;;
22332;SDS011;11334;36.986;-121.936;2023-12-20T04:41:49;22.98;;;4.57;;
22332;SDS011;11334;36.986;-121.936;2023-12-20T04:44:15;13.80;;;3.50;;
22332;SDS011;11334;36.986;-121.936;2023-12-20T04:46:41;18.00;;;3.72;;
22332;SDS011;11334;36.986;-121.936;2023-12-20T04:49:08;13.45;;;4.13;;
22332;SDS011;11334;36.986;-121.936;2023-12-20T04:51:34;13.18;;;3.70;;
22332;SDS011;11334;36.986;-121.936;2023-12-20T04:54:01;19.13;;;4.05;;
22332;SDS011;11334;36.986;-121.936;2023-12-20T04:56:27;16.17;;;5.50;;
22332;SDS011;11334;36.986;-121.936;2023-12-20T04:58:54;16.40;;;3.92;;
22332;SDS011;11334;36.986;-121.936;2023-12-20T05:01:20;18.73;;;4.28;;
22332;SDS011;11334;36.986;-121.936;2023-12-20T05:03:46;18.60;;;4.78;;
22332;SDS011;11334;36.986;-121.936;2023-12-20T05:06:13;16.77;;;4.38;;
22332;SDS011;11334;36.986;-121.936;2023-12-20T05:08:40;13.45;;;4.45;;
22332;SDS011;11334;36.986;-121.936;2023-12-20T05:11:06;16.02;;;3.97;;
22332;SDS011;11334;36.986;-121.936;2023-12-20T05:13:32;14.05;;;3.45;;
22332;SDS011;11334;36.986;-121.936;2023-12-20T05:15:58;10.07;;;3.60;;
22332;SDS011;11334;36.986;-121.936;2023-12-20T05:18:25;16.38;;;3.55;;
22332;SDS011;11334;36.986;-121.936;2023-12-20T05:20:51;13.82;;;3.45;;
22332;SDS011;11334;36.986;-121.936;2023-12-20T05:23:17;15.65;;;4.43;;
22332;SDS011;11334;36.986;-121.936;2023-12-20T05:25:45;16.02;;;3.65;;
22332;SDS011;11334;36.986;-121.936;2023-12-20T05:28:11;19.70;;;4.03;;
22332;SDS011;11334;36.986;-121.936;2023-12-20T05:30:38;15.88;;;3.38;;
22332;SDS011;11334;36.986;-121.936;2023-12-20T05:33:04;18.73;;;4.65;;
22332;SDS011;11334;36.986;-121.936;2023-12-20T05:35:30;14.38;;;3.53;;
22332;SDS011;11334;36.986;-121.936;2023-12-20T05:37:56;16.60;;;3.50;;
22332;SDS011;11334;36.986;-121.936;2023-12-20T05:40:22;17.88;;;3.50;;
22332;SDS011;11334;36.986;-121.936;2023-12-20T05:42:49;20.05;;;3.92;;
22332;SDS011;11334;36.986;-121.936;2023-12-20T05:45:15;17.15;;;4.22;;
22332;SDS011;11334;36.986;-121.936;2023-12-20T05:47:41;16.27;;;3.90;;
22332;SDS011;11334;36.986;-121.936;2023-12-20T05:50:08;14.18;;;4.40;;
22332;SDS011;11334;36.986;-121.936;2023-12-20T05:52:34;12.73;;;3.97;;
22332;SDS011;11334;36.986;-121.936;2023-12-20T05:55:00;11.23;;;3.92;;
22332;SDS011;11334;36.986;-121.936;2023-12-20T05:57:27;12.88;;;3.35;;
22332;SDS011;11334;36.986;-121.936;2023-12-20T05:59:53;11.95;;;3.35;;
22332;SDS011;11334;36.986;-121.936;2023-12-20T06:02:19;12.15;;;3.75;;
22332;SDS011;11334;36.986;-121.936;2023-12-20T06:04:45;11.88;;;3.00;;
22332;SDS011;11334;36.986;-121.936;2023-12-20T06:07:12;8.45;;;2.80;;
22332;SDS011;11334;36.986;-121.936;2023-12-20T06:09:38;15.80;;;3.33;;
22332;SDS011;11334;36.986;-121.936;2023-12-20T06:12:05;11.80;;;3.08;;
22332;SDS011;11334;36.986;-121.936;2023-12-20T06:14:33;11.23;;;2.83;;
22332;SDS011;11334;36.986;-121.936;2023-12-20T06:17:00;8.50;;;2.45;;
22332;SDS011;11334;36.986;-121.936;2023-12-20T06:19:27;8.38;;;2.65;;
22332;SDS011;11334;36.986;-121.936;2023-12-20T06:21:53;11.35;;;2.80;;
22332;SDS011;11334;36.986;-121.936;2023-12-20T06:24:19;14.02;;;3.40;;
22332;SDS011;11334;36.986;-121.936;2023-12-20T06:26:46;11.05;;;3.17;;
22332;SDS011;11334;36.986;-121.936;2023-12-20T06:29:13;8.50;;;2.60;;
22332;SDS011;11334;36.986;-121.936;2023-12-20T06:31:39;9.13;;;2.60;;
22332;SDS011;11334;36.986;-121.936;2023-12-20T06:34:05;12.82;;;3.45;;
22332;SDS011;11334;36.986;-121.936;2023-12-20T06:36:31;7.80;;;2.83;;
22332;SDS011;11334;36.986;-121.936;2023-12-20T06:38:57;10.82;;;2.15;;
22332;SDS011;11334;36.986;-121.936;2023-12-20T06:41:24;9.55;;;2.50;;
22332;SDS011;11334;36.986;-121.936;2023-12-20T06:43:50;10.85;;;2.50;;
22332;SDS011;11334;36.986;-121.936;2023-12-20T06:46:19;11.05;;;2.10;;
22332;SDS011;11334;36.986;-121.936;2023-12-20T06:48:45;5.15;;;2.25;;
22332;SDS011;11334;36.986;-121.936;2023-12-20T06:51:15;7.30;;;2.13;;
22332;SDS011;11334;36.986;-121.936;2023-12-20T06:53:42;4.80;;;1.85;;
22332;SDS011;11334;36.986;-121.936;2023-12-20T06:56:09;6.25;;;1.67;;
22332;SDS011;11334;36.986;-121.936;2023-12-20T06:58:36;6.65;;;2.58;;
22332;SDS011;11334;36.986;-121.936;2023-12-20T07:01:03;3.92;;;1.60;;
22332;SDS011;11334;36.986;-121.936;2023-12-20T07:03:30;5.65;;;1.90;;
22332;SDS011;11334;36.986;-121.936;2023-12-20T07:05:57;7.57;;;2.05;;
22332;SDS011;11334;36.986;-121.936;2023-12-20T07:08:23;6.68;;;2.40;;
22332;SDS011;11334;36.986;-121.936;2023-12-20T07:10:50;7.53;;;2.00;;
22332;SDS011;11334;36.986;-121.936;2023-12-20T07:13:19;12.00;;;2.17;;
22332;SDS011;11334;36.986;-121.936;2023-12-20T07:15:45;6.53;;;2.25;;
22332;SDS011;11334;36.986;-121.936;2023-12-20T07:18:11;6.72;;;2.55;;
22332;SDS011;11334;36.986;-121.936;2023-12-20T07:20:38;7.50;;;2.60;;
22332;SDS011;11334;36.986;-121.936;2023-12-20T07:23:04;9.93;;;2.65;;
22332;SDS011;11334;36.986;-121.936;2023-12-20T07:25:30;8.27;;;2.15;;
22332;SDS011;11334;36.986;-121.936;2023-12-20T07:27:59;10.52;;;2.08;;
22332;SDS011;11334;36.986;-121.936;2023-12-20T07:30:25;6.05;;;1.80;;
22332;SDS011;11334;36.986;-121.936;2023-12-20T07:32:52;7.70;;;1.85;;
22332;SDS011;11334;36.986;-121.936;2023-12-20T07:35:18;7.55;;;1.95;;
22332;SDS011;11334;36.986;-121.936;2023-12-20T07:37:44;4.00;;;1.17;;
22332;SDS011;11334;36.986;-121.936;2023-12-20T07:40:10;3.08;;;1.25;;
22332;SDS011;11334;36.986;-121.936;2023-12-20T07:42:37;9.80;;;1.98;;
22332;SDS011;11334;36.986;-121.936;2023-12-20T07:45:03;8.10;;;2.03;;
22332;SDS011;11334;36.986;-121.936;2023-12-20T07:47:29;9.15;;;2.20;;
22332;SDS011;11334;36.986;-121.936;2023-12-20T07:49:56;8.95;;;1.90;;
22332;SDS011;11334;36.986;-121.936;2023-12-20T07:52:22;9.80;;;2.35;;
22332;SDS011;11334;36.986;-121.936;2023-12-20T07:54:48;7.43;;;2.15;;
22332;SDS011;11334;36.986;-121.936;2023-12-20T07:57:15;9.00;;;2.70;;
22332;SDS011;11334;36.986;-121.936;2023-12-20T07:59:41;8.70;;;2.20;;
22332;SDS011;11334;36.986;-121.936;2023-12-20T08:02:07;7.85;;;1.75;;
22332;SDS011;11334;36.986;-121.936;2023-12-20T08:04:34;7.72;;;2.17;;
22332;SDS011;11334;36.986;-121.936;2023-12-20T08:07:00;8.10;;;1.50;;
22332;SDS011;11334;36.986;-121.936;2023-12-20T08:09:26;5.40;;;1.95;;
22332;SDS011;11334;36.986;-121.936;2023-12-20T08:11:52;5.88;;;1.17;;
22332;SDS011;11334;36.986;-121.936;2023-12-20T08:14:18;5.15;;;1.27;;
22332;SDS011;11334;36.986;-121.936;2023-12-20T08:16:45;4.10;;;1.50;;
22332;SDS011;11334;36.986;-121.936;2023-12-20T08:19:11;3.13;;;1.05;;
22332;SDS011;11334;36.986;-121.936;2023-12-20T08:21:37;3.22;;;0.85;;
22332;SDS011;11334;36.986;-121.936;2023-12-20T08:24:03;1.73;;;1.00;;
22332;SDS011;11334;36.986;-121.936;2023-12-20T08:26:30;4.20;;;0.98;;
22332;SDS011;11334;36.986;-121.936;2023-12-20T08:28:56;3.13;;;1.17;;
22332;SDS011;11334;36.986;-121.936;2023-12-20T08:31:23;6.07;;;1.30;;
22332;SDS011;11334;36.986;-121.936;2023-12-20T08:33:50;4.43;;;1.23;;
22332;SDS011;11334;36.986;-121.936;2023-12-20T08:36:16;6.28;;;1.67;;
22332;SDS011;11334;36.986;-121.936;2023-12-20T08:38:43;1.70;;;0.95;;
22332;SDS011;11334;36.986;-121.936;2023-12-20T08:41:10;3.10;;;1.00;;
22332;SDS011;11334;36.986;-121.936;2023-12-20T08:43:36;12.55;;;1.17;;
22332;SDS011;11334;36.986;-121.936;2023-12-20T08:46:05;2.08;;;1.05;;
22332;SDS011;11334;36.986;-121.936;2023-12-20T08:48:31;3.50;;;0.95;;
22332;SDS011;11334;36.986;-121.936;2023-12-20T08:50:57;4.72;;;1.10;;
22332;SDS011;11334;36.986;-121.936;2023-12-20T08:53:24;3.85;;;1.08;;
22332;SDS011;11334;36.986;-121.936;2023-12-20T08:55:50;2.72;;;1.15;;
22332;SDS011;11334;36.986;-121.936;2023-12-20T08:58:16;2.30;;;1.10;;
22332;SDS011;11334;36.986;-121.936;2023-12-20T09:00:42;4.90;;;1.20;;
22332;SDS011;11334;36.986;-121.936;2023-12-20T09:03:09;8.23;;;1.02;;
22332;SDS011;11334;36.986;-121.936;2023-12-20T09:05:35;6.65;;;1.33;;
22332;SDS011;11334;36.986;-121.936;2023-12-20T09:08:01;6.35;;;1.15;;
22332;SDS011;11334;36.986;-121.936;2023-12-20T09:10:28;4.85;;;1.23;;
22332;SDS011;11334;36.986;-121.936;2023-12-20T09:12:54;4.03;;;1.13;;
22332;SDS011;11334;36.986;-121.936;2023-12-20T09:15:25;4.55;;;1.33;;
22332;SDS011;11334;36.986;-121.936;2023-12-20T09:17:52;4.95;;;1.63;;
22332;SDS011;11334;36.986;-121.936;2023-12-20T09:20:19;8.45;;;2.10;;
22332;SDS011;11334;36.986;-121.936;2023-12-20T09:22:45;13.40;;;3.05;;
22332;SDS011;11334;36.986;-121.936;2023-12-20T09:25:12;13.38;;;3.85;;
22332;SDS011;11334;36.986;-121.936;2023-12-20T09:27:41;14.43;;;3.50;;
22332;SDS011;11334;36.986;-121.936;2023-12-20T09:30:07;13.65;;;3.53;;
22332;SDS011;11334;36.986;-121.936;2023-12-20T09:32:34;16.25;;;3.35;;
22332;SDS011;11334;36.986;-121.936;2023-12-20T09:35:00;10.18;;;2.72;;
22332;SDS011;11334;36.986;-121.936;2023-12-20T09:37:27;12.85;;;3.15;;
22332;SDS011;11334;36.986;-121.936;2023-12-20T09:39:53;10.48;;;2.45;;
22332;SDS011;11334;36.986;-121.936;2023-12-20T09:42:32;11.07;;;2.33;;
22332;SDS011;11334;36.986;-121.936;2023-12-20T09:45:14;11.68;;;2.13;;
22332;SDS011;11334;36.986;-121.936;2023-12-20T09:47:43;8.00;;;2.22;;
22332;SDS011;11334;36.986;-121.936;2023-12-20T09:50:10;9.63;;;2.15;;
22332;SDS011;11334;36.986;-121.936;2023-12-20T09:52:37;7.13;;;1.65;;
22332;SDS011;11334;36.986;-121.936;2023-12-20T09:55:05;7.07;;;2.22;;
22332;SDS011;11334;36.986;-121.936;2023-12-20T09:57:32;10.18;;;2.17;;
22332;SDS011;11334;36.986;-121.936;2023-12-20T09:59:59;9.05;;;2.28;;
22332;SDS011;11334;36.986;-121.936;2023-12-20T10:02:26;11.05;;;2.60;;
22332;SDS011;11334;36.986;-121.936;2023-12-20T10:04:54;7.25;;;2.20;;
22332;SDS011;11334;36.986;-121.936;2023-12-20T10:07:20;12.15;;;2.30;;
22332;SDS011;11334;36.986;-121.936;2023-12-20T10:09:47;15.18;;;3.35;;
22332;SDS011;11334;36.986;-121.936;2023-12-20T10:12:14;11.98;;;2.97;;
22332;SDS011;11334;36.986;-121.936;2023-12-20T10:14:40;11.95;;;3.55;;
22332;SDS011;11334;36.986;-121.936;2023-12-20T10:17:07;16.17;;;4.38;;
22332;SDS011;11334;36.986;-121.936;2023-12-20T10:19:33;20.80;;;3.42;;
22332;SDS011;11334;36.986;-121.936;2023-12-20T10:21:59;20.52;;;3.75;;
22332;SDS011;11334;36.986;-121.936;2023-12-20T10:24:28;13.25;;;2.58;;
22332;SDS011;11334;36.986;-121.936;2023-12-20T10:27:01;12.05;;;3.28;;
22332;SDS011;11334;36.986;-121.936;2023-12-20T10:29:32;12.77;;;3.10;;
22332;SDS011;11334;36.986;-121.936;2023-12-20T10:32:23;10.23;;;2.35;;
22332;SDS011;11334;36.986;-121.936;2023-12-20T10:34:49;11.23;;;3.90;;
22332;SDS011;11334;36.986;-121.936;2023-12-20T10:37:17;6.90;;;2.15;;
22332;SDS011;11334;36.986;-121.936;2023-12-20T10:39:43;7.68;;;2.00;;
22332;SDS011;11334;36.986;-121.936;2023-12-20T10:42:10;11.30;;;2.45;;
22332;SDS011;11334;36.986;-121.936;2023-12-20T10:44:38;15.35;;;3.25;;
22332;SDS011;11334;36.986;-121.936;2023-12-20T10:47:04;10.73;;;3.15;;
22332;SDS011;11334;36.986;-121.936;2023-12-20T10:49:32;8.90;;;2.40;;
22332;SDS011;11334;36.986;-121.936;2023-12-20T10:52:02;12.43;;;2.58;;
22332;SDS011;11334;36.986;-121.936;2023-12-20T10:54:29;8.32;;;2.53;;
22332;SDS011;11334;36.986;-121.936;2023-12-20T10:56:55;9.75;;;2.33;;
22332;SDS011;11334;36.986;-121.936;2023-12-20T10:59:23;10.82;;;2.33;;
22332;SDS011;11334;36.986;-121.936;2023-12-20T11:01:50;6.70;;;2.13;;
22332;SDS011;11334;36.986;-121.936;2023-12-20T11:04:22;6.05;;;1.63;;
22332;SDS011;11334;36.986;-121.936;2023-12-20T11:06:56;8.02;;;1.92;;
22332;SDS011;11334;36.986;-121.936;2023-12-20T11:09:31;3.30;;;1.20;;
22332;SDS011;11334;36.986;-121.936;2023-12-20T11:12:10;2.53;;;1.02;;
22332;SDS011;11334;36.986;-121.936;2023-12-20T11:17:11;3.03;;;1.02;;
22332;SDS011;11334;36.986;-121.936;2023-12-20T11:22:24;3.38;;;0.70;;
22332;SDS011;11334;36.986;-121.936;2023-12-20T11:24:52;5.28;;;0.75;;
22332;SDS011;11334;36.986;-121.936;2023-12-20T11:27:19;2.38;;;0.80;;
22332;SDS011;11334;36.986;-121.936;2023-12-20T11:29:52;3.72;;;0.75;;
22332;SDS011;11334;36.986;-121.936;2023-12-20T11:34:57;3.20;;;0.70;;
22332;SDS011;11334;36.986;-121.936;2023-12-20T11:37:31;1.95;;;0.77;;
22332;SDS011;11334;36.986;-121.936;2023-12-20T11:40:02;1.73;;;0.73;;
22332;SDS011;11334;36.986;-121.936;2023-12-20T11:42:38;4.55;;;1.00;;
22332;SDS011;11334;36.986;-121.936;2023-12-20T11:45:08;4.10;;;0.98;;
22332;SDS011;11334;36.986;-121.936;2023-12-20T11:47:35;1.40;;;0.55;;
22332;SDS011;11334;36.986;-121.936;2023-12-20T11:50:01;1.90;;;0.90;;
22332;SDS011;11334;36.986;-121.936;2023-12-20T11:52:29;2.85;;;0.70;;
22332;SDS011;11334;36.986;-121.936;2023-12-20T11:54:56;2.35;;;0.70;;
22332;SDS011;11334;36.986;-121.936;2023-12-20T11:57:23;4.80;;;0.85;;
22332;SDS011;11334;36.986;-121.936;2023-12-20T11:59:50;1.30;;;0.63;;
22332;SDS011;11334;36.986;-121.936;2023-12-20T12:02:16;5.10;;;1.00;;
22332;SDS011;11334;36.986;-121.936;2023-12-20T12:04:42;5.10;;;1.05;;
22332;SDS011;11334;36.986;-121.936;2023-12-20T12:07:08;5.60;;;0.95;;
22332;SDS011;11334;36.986;-121.936;2023-12-20T12:09:35;2.80;;;0.70;;
22332;SDS011;11334;36.986;-121.936;2023-12-20T12:12:01;3.75;;;0.98;;
22332;SDS011;11334;36.986;-121.936;2023-12-20T12:14:28;2.70;;;0.70;;
22332;SDS011;11334;36.986;-121.936;2023-12-20T12:16:54;4.45;;;0.88;;
22332;SDS011;11334;36.986;-121.936;2023-12-20T12:19:21;3.30;;;0.80;;
22332;SDS011;11334;36.986;-121.936;2023-12-20T12:21:49;4.40;;;0.90;;
22332;SDS011;11334;36.986;-121.936;2023-12-20T12:24:19;4.32;;;1.00;;
22332;SDS011;11334;36.986;-121.936;2023-12-20T12:26:52;3.30;;;0.65;;
22332;SDS011;11334;36.986;-121.936;2023-12-20T12:29:18;1.63;;;0.80;;
22332;SDS011;11334;36.986;-121.936;2023-12-20T12:31:44;2.63;;;0.82;;
22332;SDS011;11334;36.986;-121.936;2023-12-20T12:34:10;2.42;;;0.70;;
22332;SDS011;11334;36.986;-121.936;2023-12-20T12:36:37;3.13;;;0.77;;
22332;SDS011;11334;36.986;-121.936;2023-12-20T12:39:03;3.80;;;0.85;;
22332;SDS011;11334;36.986;-121.936;2023-12-20T12:41:30;3.63;;;0.70;;
22332;SDS011;11334;36.986;-121.936;2023-12-20T12:43:56;3.38;;;0.70;;
22332;SDS011;11334;36.986;-121.936;2023-12-20T12:46:22;2.72;;;0.68;;
22332;SDS011;11334;36.986;-121.936;2023-12-20T12:48:49;3.80;;;1.48;;
22332;SDS011;11334;36.986;-121.936;2023-12-20T12:51:15;4.45;;;1.23;;
22332;SDS011;11334;36.986;-121.936;2023-12-20T12:53:41;2.35;;;0.93;;
22332;SDS011;11334;36.986;-121.936;2023-12-20T12:56:08;5.28;;;0.98;;
22332;SDS011;11334;36.986;-121.936;2023-12-20T12:58:34;0.95;;;0.80;;
22332;SDS011;11334;36.986;-121.936;2023-12-20T13:01:00;2.08;;;0.60;;
22332;SDS011;11334;36.986;-121.936;2023-12-20T13:03:26;1.88;;;0.57;;
22332;SDS011;11334;36.986;-121.936;2023-12-20T13:05:53;5.55;;;1.10;;
22332;SDS011;11334;36.986;-121.936;2023-12-20T13:08:19;3.33;;;0.70;;
22332;SDS011;11334;36.986;-121.936;2023-12-20T13:10:45;3.13;;;0.65;;
22332;SDS011;11334;36.986;-121.936;2023-12-20T13:13:11;4.07;;;0.85;;
22332;SDS011;11334;36.986;-121.936;2023-12-20T13:15:37;4.05;;;0.70;;
22332;SDS011;11334;36.986;-121.936;2023-12-20T13:18:04;2.47;;;0.95;;
22332;SDS011;11334;36.986;-121.936;2023-12-20T13:20:31;2.25;;;1.00;;
22332;SDS011;11334;36.986;-121.936;2023-12-20T13:22:58;1.02;;;0.75;;
22332;SDS011;11334;36.986;-121.936;2023-12-20T13:25:25;3.20;;;0.80;;
22332;SDS011;11334;36.986;-121.936;2023-12-20T13:27:51;1.85;;;0.60;;
22332;SDS011;11334;36.986;-121.936;2023-12-20T13:30:18;1.48;;;0.80;;
22332;SDS011;11334;36.986;-121.936;2023-12-20T13:32:44;4.55;;;0.90;;
22332;SDS011;11334;36.986;-121.936;2023-12-20T13:35:11;0.90;;;0.63;;
22332;SDS011;11334;36.986;-121.936;2023-12-20T13:37:37;3.42;;;0.70;;
22332;SDS011;11334;36.986;-121.936;2023-12-20T13:40:05;1.17;;;0.50;;
22332;SDS011;11334;36.986;-121.936;2023-12-20T13:42:32;5.07;;;0.93;;
22332;SDS011;11334;36.986;-121.936;2023-12-20T13:44:58;1.52;;;0.40;;
22332;SDS011;11334;36.986;-121.936;2023-12-20T13:47:24;3.33;;;0.68;;
22332;SDS011;11334;36.986;-121.936;2023-12-20T13:49:50;1.30;;;0.40;;
22332;SDS011;11334;36.986;-121.936;2023-12-20T13:52:16;2.70;;;0.90;;
22332;SDS011;11334;36.986;-121.936;2023-12-20T13:54:43;2.55;;;0.80;;
22332;SDS011;11334;36.986;-121.936;2023-12-20T13:57:10;1.13;;;0.60;;
22332;SDS011;11334;36.986;-121.936;2023-12-20T13:59:36;1.30;;;0.45;;
22332;SDS011;11334;36.986;-121.936;2023-12-20T14:02:02;3.35;;;0.60;;
22332;SDS011;11334;36.986;-121.936;2023-12-20T14:04:28;4.15;;;0.60;;
22332;SDS011;11334;36.986;-121.936;2023-12-20T14:06:55;1.33;;;0.60;;
22332;SDS011;11334;36.986;-121.936;2023-12-20T14:09:21;2.47;;;1.02;;